sensor_id;sensor_type;location;lat;lon;timestamp;P1;durP1;ratioP1;P2;durP2;ratioP2
13366;SDS011;6752;52.612;13.630;2023-02-28T00:02:47;11.00;;;8.70;;
13366;SDS011;6752;52.612;13.630;2023-02-28T00:07:49;10.77;;;9.02;;
13366;SDS011;6752;52.612;13.630;2023-02-28T00:12:52;13.27;;;9.23;;
13366;SDS011;6752;52.612;13.630;2023-02-28T00:17:54;14.23;;;10.10;;
13366;SDS011;6752;52.612;13.630;2023-02-28T00:23:13;12.48;;;9.27;;
13366;SDS011;6752;52.612;13.630;2023-02-28T00:28:15;11.63;;;9.43;;
13366;SDS011;6752;52.612;13.630;2023-02-28T00:33:18;14.82;;;9.55;;
13366;SDS011;6752;52.612;13.630;2023-02-28T00:38:20;12.27;;;9.60;;
13366;SDS011;6752;52.612;13.630;2023-02-28T00:43:22;13.50;;;10.90;;
13366;SDS011;6752;52.612;13.630;2023-02-28T00:48:25;13.40;;;9.77;;
13366;SDS011;6752;52.612;13.630;2023-02-28T00:53:27;12.20;;;9.32;;
13366;SDS011;6752;52.612;13.630;2023-02-28T00:58:29;14.93;;;10.15;;
13366;SDS011;6752;52.612;13.630;2023-02-28T01:03:32;13.55;;;10.40;;
13366;SDS011;6752;52.612;13.630;2023-02-28T01:08:34;11.32;;;9.48;;
13366;SDS011;6752;52.612;13.630;2023-02-28T01:13:37;14.93;;;10.88;;
13366;SDS011;6752;52.612;13.630;2023-02-28T01:18:39;16.08;;;9.75;;
13366;SDS011;6752;52.612;13.630;2023-02-28T01:23:45;12.13;;;10.05;;
13366;SDS011;6752;52.612;13.630;2023-02-28T01:28:47;11.95;;;9.82;;
13366;SDS011;6752;52.612;13.630;2023-02-28T01:33:49;11.15;;;9.20;;
13366;SDS011;6752;52.612;13.630;2023-02-28T01:38:55;11.27;;;9.48;;
13366;SDS011;6752;52.612;13.630;2023-02-28T01:43:59;11.88;;;8.77;;
13366;SDS011;6752;52.612;13.630;2023-02-28T01:49:09;13.50;;;9.45;;
13366;SDS011;6752;52.612;13.630;2023-02-28T01:54:15;14.15;;;10.45;;
13366;SDS011;6752;52.612;13.630;2023-02-28T01:59:14;12.90;;;10.15;;
13366;SDS011;6752;52.612;13.630;2023-02-28T02:04:15;13.20;;;10.85;;
13366;SDS011;6752;52.612;13.630;2023-02-28T02:09:18;18.67;;;10.85;;
13366;SDS011;6752;52.612;13.630;2023-02-28T02:35:27;12.65;;;10.50;;
13366;SDS011;6752;52.612;13.630;2023-02-28T02:40:43;14.40;;;10.52;;
13366;SDS011;6752;52.612;13.630;2023-02-28T02:45:50;17.70;;;11.60;;
13366;SDS011;6752;52.612;13.630;2023-02-28T02:50:58;16.20;;;10.90;;
13366;SDS011;6752;52.612;13.630;2023-02-28T02:55:59;12.55;;;10.82;;
13366;SDS011;6752;52.612;13.630;2023-02-28T03:01:01;13.32;;;10.88;;
13366;SDS011;6752;52.612;13.630;2023-02-28T03:06:04;14.48;;;10.52;;
13366;SDS011;6752;52.612;13.630;2023-02-28T03:11:07;15.27;;;10.38;;
13366;SDS011;6752;52.612;13.630;2023-02-28T03:16:17;16.02;;;11.85;;
13366;SDS011;6752;52.612;13.630;2023-02-28T03:26:42;12.90;;;10.57;;
13366;SDS011;6752;52.612;13.630;2023-02-28T03:31:50;14.27;;;12.37;;
13366;SDS011;6752;52.612;13.630;2023-02-28T03:36:53;15.15;;;10.90;;
13366;SDS011;6752;52.612;13.630;2023-02-28T03:42:05;19.52;;;13.35;;
13366;SDS011;6752;52.612;13.630;2023-02-28T03:52:07;17.55;;;12.43;;
13366;SDS011;6752;52.612;13.630;2023-02-28T03:57:15;16.12;;;12.00;;
13366;SDS011;6752;52.612;13.630;2023-02-28T04:02:17;19.52;;;13.15;;
13366;SDS011;6752;52.612;13.630;2023-02-28T04:07:20;20.15;;;13.68;;
13366;SDS011;6752;52.612;13.630;2023-02-28T04:12:26;19.30;;;13.62;;
13366;SDS011;6752;52.612;13.630;2023-02-28T04:22:26;15.45;;;13.02;;
13366;SDS011;6752;52.612;13.630;2023-02-28T04:27:29;19.87;;;13.05;;
13366;SDS011;6752;52.612;13.630;2023-02-28T04:32:31;15.98;;;13.30;;
13366;SDS011;6752;52.612;13.630;2023-02-28T04:37:34;17.75;;;12.82;;
13366;SDS011;6752;52.612;13.630;2023-02-28T04:42:36;17.27;;;14.52;;
13366;SDS011;6752;52.612;13.630;2023-02-28T04:47:54;16.60;;;12.50;;
13366;SDS011;6752;52.612;13.630;2023-02-28T04:52:56;17.17;;;13.30;;
13366;SDS011;6752;52.612;13.630;2023-02-28T04:57:59;18.77;;;13.93;;
13366;SDS011;6752;52.612;13.630;2023-02-28T05:03:01;18.25;;;13.23;;
13366;SDS011;6752;52.612;13.630;2023-02-28T05:08:03;16.17;;;13.82;;
13366;SDS011;6752;52.612;13.630;2023-02-28T05:13:06;18.67;;;13.95;;
13366;SDS011;6752;52.612;13.630;2023-02-28T05:23:29;20.27;;;14.60;;
13366;SDS011;6752;52.612;13.630;2023-02-28T05:28:28;23.00;;;15.60;;
13366;SDS011;6752;52.612;13.630;2023-02-28T05:33:30;18.12;;;14.35;;
13366;SDS011;6752;52.612;13.630;2023-02-28T05:38:33;18.83;;;13.95;;
13366;SDS011;6752;52.612;13.630;2023-02-28T05:43:35;14.68;;;13.07;;
13366;SDS011;6752;52.612;13.630;2023-02-28T05:48:38;16.33;;;13.62;;
13366;SDS011;6752;52.612;13.630;2023-02-28T05:53:42;19.20;;;15.52;;
13366;SDS011;6752;52.612;13.630;2023-02-28T05:58:45;16.12;;;13.32;;
13366;SDS011;6752;52.612;13.630;2023-02-28T06:03:47;22.77;;;14.50;;
13366;SDS011;6752;52.612;13.630;2023-02-28T06:08:50;20.90;;;14.57;;
13366;SDS011;6752;52.612;13.630;2023-02-28T06:13:56;18.02;;;14.02;;
13366;SDS011;6752;52.612;13.630;2023-02-28T06:18:58;19.77;;;14.77;;
13366;SDS011;6752;52.612;13.630;2023-02-28T06:24:03;20.52;;;14.50;;
13366;SDS011;6752;52.612;13.630;2023-02-28T06:29:05;18.55;;;14.02;;
13366;SDS011;6752;52.612;13.630;2023-02-28T06:34:08;19.37;;;14.82;;
13366;SDS011;6752;52.612;13.630;2023-02-28T06:39:10;21.55;;;14.57;;
13366;SDS011;6752;52.612;13.630;2023-02-28T06:44:16;17.58;;;15.35;;
13366;SDS011;6752;52.612;13.630;2023-02-28T06:49:15;16.20;;;13.25;;
13366;SDS011;6752;52.612;13.630;2023-02-28T06:54:20;16.75;;;15.00;;
13366;SDS011;6752;52.612;13.630;2023-02-28T06:59:23;15.80;;;13.53;;
13366;SDS011;6752;52.612;13.630;2023-02-28T07:04:25;17.33;;;13.02;;
13366;SDS011;6752;52.612;13.630;2023-02-28T07:09:28;16.77;;;12.45;;
13366;SDS011;6752;52.612;13.630;2023-02-28T07:14:30;17.95;;;13.85;;
13366;SDS011;6752;52.612;13.630;2023-02-28T07:19:32;16.42;;;12.05;;
13366;SDS011;6752;52.612;13.630;2023-02-28T07:24:35;18.45;;;13.35;;
13366;SDS011;6752;52.612;13.630;2023-02-28T07:29:37;17.73;;;12.88;;
13366;SDS011;6752;52.612;13.630;2023-02-28T07:34:40;20.05;;;12.90;;
13366;SDS011;6752;52.612;13.630;2023-02-28T07:39:42;18.10;;;13.52;;
13366;SDS011;6752;52.612;13.630;2023-02-28T07:44:44;18.90;;;12.23;;
13366;SDS011;6752;52.612;13.630;2023-02-28T07:49:47;17.00;;;11.55;;
13366;SDS011;6752;52.612;13.630;2023-02-28T07:54:49;16.60;;;11.23;;
13366;SDS011;6752;52.612;13.630;2023-02-28T07:59:51;15.07;;;11.07;;
13366;SDS011;6752;52.612;13.630;2023-02-28T08:04:54;16.23;;;11.23;;
13366;SDS011;6752;52.612;13.630;2023-02-28T08:10:00;15.20;;;11.82;;
13366;SDS011;6752;52.612;13.630;2023-02-28T08:14:59;21.85;;;11.55;;
13366;SDS011;6752;52.612;13.630;2023-02-28T08:25:03;14.93;;;11.38;;
13366;SDS011;6752;52.612;13.630;2023-02-28T08:30:06;12.07;;;10.23;;
13366;SDS011;6752;52.612;13.630;2023-02-28T08:35:08;13.95;;;9.75;;
13366;SDS011;6752;52.612;13.630;2023-02-28T08:40:11;13.93;;;8.43;;
13366;SDS011;6752;52.612;13.630;2023-02-28T08:45:13;13.68;;;8.75;;
13366;SDS011;6752;52.612;13.630;2023-02-28T08:50:15;12.18;;;8.57;;
13366;SDS011;6752;52.612;13.630;2023-02-28T08:55:18;13.43;;;8.00;;
13366;SDS011;6752;52.612;13.630;2023-02-28T09:05:22;9.82;;;6.72;;
13366;SDS011;6752;52.612;13.630;2023-02-28T09:10:27;9.82;;;5.68;;
13366;SDS011;6752;52.612;13.630;2023-02-28T09:15:29;10.52;;;6.72;;
13366;SDS011;6752;52.612;13.630;2023-02-28T09:20:32;9.00;;;5.35;;
13366;SDS011;6752;52.612;13.630;2023-02-28T09:30:36;7.35;;;4.50;;
13366;SDS011;6752;52.612;13.630;2023-02-28T09:35:38;7.97;;;5.70;;
13366;SDS011;6752;52.612;13.630;2023-02-28T09:40:49;6.70;;;3.90;;
13366;SDS011;6752;52.612;13.630;2023-02-28T09:45:56;7.05;;;4.60;;
13366;SDS011;6752;52.612;13.630;2023-02-28T09:50:59;8.70;;;5.40;;
13366;SDS011;6752;52.612;13.630;2023-02-28T09:56:04;10.67;;;6.60;;
13366;SDS011;6752;52.612;13.630;2023-02-28T10:01:21;7.87;;;4.28;;
13366;SDS011;6752;52.612;13.630;2023-02-28T10:06:46;7.18;;;3.78;;
13366;SDS011;6752;52.612;13.630;2023-02-28T10:11:48;7.30;;;4.05;;
13366;SDS011;6752;52.612;13.630;2023-02-28T10:16:58;5.85;;;3.60;;
13366;SDS011;6752;52.612;13.630;2023-02-28T10:22:11;6.40;;;3.95;;
13366;SDS011;6752;52.612;13.630;2023-02-28T10:27:28;6.43;;;4.00;;
13366;SDS011;6752;52.612;13.630;2023-02-28T10:32:25;8.60;;;4.83;;
13366;SDS011;6752;52.612;13.630;2023-02-28T10:37:27;6.18;;;3.58;;
13366;SDS011;6752;52.612;13.630;2023-02-28T10:42:29;7.15;;;3.05;;
13366;SDS011;6752;52.612;13.630;2023-02-28T10:47:32;8.00;;;3.83;;
13366;SDS011;6752;52.612;13.630;2023-02-28T10:52:36;8.68;;;3.45;;
13366;SDS011;6752;52.612;13.630;2023-02-28T10:57:39;7.25;;;3.78;;
13366;SDS011;6752;52.612;13.630;2023-02-28T11:02:41;7.75;;;3.55;;
13366;SDS011;6752;52.612;13.630;2023-02-28T11:07:50;8.48;;;3.90;;
13366;SDS011;6752;52.612;13.630;2023-02-28T11:12:53;9.07;;;3.67;;
13366;SDS011;6752;52.612;13.630;2023-02-28T11:17:54;7.72;;;3.35;;
13366;SDS011;6752;52.612;13.630;2023-02-28T11:22:56;8.90;;;3.83;;
13366;SDS011;6752;52.612;13.630;2023-02-28T11:27:59;8.70;;;4.07;;
13366;SDS011;6752;52.612;13.630;2023-02-28T11:33:04;7.43;;;3.85;;
13366;SDS011;6752;52.612;13.630;2023-02-28T11:38:04;11.95;;;3.80;;
13366;SDS011;6752;52.612;13.630;2023-02-28T11:48:27;9.85;;;3.97;;
13366;SDS011;6752;52.612;13.630;2023-02-28T11:53:47;10.82;;;4.12;;
13366;SDS011;6752;52.612;13.630;2023-02-28T12:09:04;6.68;;;3.62;;
13366;SDS011;6752;52.612;13.630;2023-02-28T12:14:23;8.35;;;3.28;;
13366;SDS011;6752;52.612;13.630;2023-02-28T12:19:45;8.00;;;3.50;;
13366;SDS011;6752;52.612;13.630;2023-02-28T12:30:03;7.95;;;3.50;;
13366;SDS011;6752;52.612;13.630;2023-02-28T12:35:10;6.80;;;3.45;;
13366;SDS011;6752;52.612;13.630;2023-02-28T12:40:18;6.62;;;3.83;;
13366;SDS011;6752;52.612;13.630;2023-02-28T12:45:19;7.85;;;3.70;;
13366;SDS011;6752;52.612;13.630;2023-02-28T12:50:21;11.73;;;5.82;;
13366;SDS011;6752;52.612;13.630;2023-02-28T12:55:38;8.00;;;3.78;;
13366;SDS011;6752;52.612;13.630;2023-02-28T13:00:48;6.75;;;3.60;;
13366;SDS011;6752;52.612;13.630;2023-02-28T13:11:29;6.37;;;3.70;;
13366;SDS011;6752;52.612;13.630;2023-02-28T13:21:55;10.27;;;4.47;;
13366;SDS011;6752;52.612;13.630;2023-02-28T13:47:39;6.93;;;3.67;;
13366;SDS011;6752;52.612;13.630;2023-02-28T13:52:45;7.75;;;4.57;;
13366;SDS011;6752;52.612;13.630;2023-02-28T13:57:58;7.57;;;4.55;;
13366;SDS011;6752;52.612;13.630;2023-02-28T14:08:28;7.50;;;4.50;;
13366;SDS011;6752;52.612;13.630;2023-02-28T14:13:41;10.32;;;5.57;;
13366;SDS011;6752;52.612;13.630;2023-02-28T14:18:49;8.15;;;5.00;;
13366;SDS011;6752;52.612;13.630;2023-02-28T14:29:52;9.80;;;6.03;;
13366;SDS011;6752;52.612;13.630;2023-02-28T14:34:57;8.95;;;5.85;;
13366;SDS011;6752;52.612;13.630;2023-02-28T14:40:02;8.10;;;4.93;;
13366;SDS011;6752;52.612;13.630;2023-02-28T14:45:05;10.38;;;6.25;;
13366;SDS011;6752;52.612;13.630;2023-02-28T14:50:17;8.15;;;5.25;;
13366;SDS011;6752;52.612;13.630;2023-02-28T14:55:12;8.32;;;4.97;;
13366;SDS011;6752;52.612;13.630;2023-02-28T15:05:30;8.98;;;5.65;;
13366;SDS011;6752;52.612;13.630;2023-02-28T15:10:32;8.75;;;4.97;;
13366;SDS011;6752;52.612;13.630;2023-02-28T15:20:36;9.55;;;5.20;;
13366;SDS011;6752;52.612;13.630;2023-02-28T15:25:39;8.98;;;4.97;;
13366;SDS011;6752;52.612;13.630;2023-02-28T15:30:49;10.07;;;5.57;;
13366;SDS011;6752;52.612;13.630;2023-02-28T15:35:43;9.07;;;5.65;;
13366;SDS011;6752;52.612;13.630;2023-02-28T15:40:49;9.13;;;5.62;;
13366;SDS011;6752;52.612;13.630;2023-02-28T15:45:52;9.43;;;5.10;;
13366;SDS011;6752;52.612;13.630;2023-02-28T15:51:09;11.98;;;7.43;;
13366;SDS011;6752;52.612;13.630;2023-02-28T15:56:19;8.80;;;5.85;;
13366;SDS011;6752;52.612;13.630;2023-02-28T16:01:29;10.05;;;5.87;;
13366;SDS011;6752;52.612;13.630;2023-02-28T16:11:40;10.77;;;6.28;;
13366;SDS011;6752;52.612;13.630;2023-02-28T16:16:44;9.95;;;7.10;;
13366;SDS011;6752;52.612;13.630;2023-02-28T16:21:46;11.12;;;6.75;;
13366;SDS011;6752;52.612;13.630;2023-02-28T16:26:48;13.15;;;7.82;;
13366;SDS011;6752;52.612;13.630;2023-02-28T16:31:50;12.57;;;10.23;;
13366;SDS011;6752;52.612;13.630;2023-02-28T16:36:53;14.82;;;11.07;;
13366;SDS011;6752;52.612;13.630;2023-02-28T16:41:55;12.68;;;8.90;;
13366;SDS011;6752;52.612;13.630;2023-02-28T16:47:02;15.52;;;10.60;;
13366;SDS011;6752;52.612;13.630;2023-02-28T16:52:03;22.23;;;14.40;;
13366;SDS011;6752;52.612;13.630;2023-02-28T16:57:07;17.17;;;13.85;;
13366;SDS011;6752;52.612;13.630;2023-02-28T17:02:10;36.13;;;22.73;;
13366;SDS011;6752;52.612;13.630;2023-02-28T17:07:11;34.15;;;26.10;;
13366;SDS011;6752;52.612;13.630;2023-02-28T17:12:13;28.50;;;21.42;;
13366;SDS011;6752;52.612;13.630;2023-02-28T17:17:19;28.45;;;19.85;;
13366;SDS011;6752;52.612;13.630;2023-02-28T17:22:21;23.20;;;16.30;;
13366;SDS011;6752;52.612;13.630;2023-02-28T17:27:24;13.85;;;10.30;;
13366;SDS011;6752;52.612;13.630;2023-02-28T17:32:26;12.70;;;9.93;;
13366;SDS011;6752;52.612;13.630;2023-02-28T17:37:29;12.15;;;9.07;;
13366;SDS011;6752;52.612;13.630;2023-02-28T17:42:31;10.45;;;8.70;;
13366;SDS011;6752;52.612;13.630;2023-02-28T17:47:33;10.90;;;8.93;;
13366;SDS011;6752;52.612;13.630;2023-02-28T17:52:36;10.85;;;8.48;;
13366;SDS011;6752;52.612;13.630;2023-02-28T17:57:38;9.32;;;8.32;;
13366;SDS011;6752;52.612;13.630;2023-02-28T18:02:41;9.90;;;7.87;;
13366;SDS011;6752;52.612;13.630;2023-02-28T18:07:46;10.20;;;8.63;;
13366;SDS011;6752;52.612;13.630;2023-02-28T18:12:50;9.95;;;8.45;;
13366;SDS011;6752;52.612;13.630;2023-02-28T18:17:50;12.18;;;8.88;;
13366;SDS011;6752;52.612;13.630;2023-02-28T18:22:53;10.48;;;8.23;;
13366;SDS011;6752;52.612;13.630;2023-02-28T18:27:55;9.95;;;8.43;;
13366;SDS011;6752;52.612;13.630;2023-02-28T18:33:00;10.00;;;7.93;;
13366;SDS011;6752;52.612;13.630;2023-02-28T18:38:10;9.50;;;8.10;;
13366;SDS011;6752;52.612;13.630;2023-02-28T18:43:14;11.60;;;8.13;;
13366;SDS011;6752;52.612;13.630;2023-02-28T18:48:16;9.85;;;8.30;;
13366;SDS011;6752;52.612;13.630;2023-02-28T18:53:19;11.93;;;8.70;;
13366;SDS011;6752;52.612;13.630;2023-02-28T18:58:21;10.70;;;8.77;;
13366;SDS011;6752;52.612;13.630;2023-02-28T19:03:24;9.85;;;8.85;;
13366;SDS011;6752;52.612;13.630;2023-02-28T19:08:26;14.30;;;9.70;;
13366;SDS011;6752;52.612;13.630;2023-02-28T19:13:28;10.43;;;9.32;;
13366;SDS011;6752;52.612;13.630;2023-02-28T19:18:31;11.07;;;9.68;;
13366;SDS011;6752;52.612;13.630;2023-02-28T19:23:33;11.88;;;9.63;;
13366;SDS011;6752;52.612;13.630;2023-02-28T19:28:35;10.80;;;9.10;;
13366;SDS011;6752;52.612;13.630;2023-02-28T19:33:38;11.77;;;9.15;;
13366;SDS011;6752;52.612;13.630;2023-02-28T19:38:40;10.00;;;8.32;;
13366;SDS011;6752;52.612;13.630;2023-02-28T19:43:43;12.43;;;9.05;;
13366;SDS011;6752;52.612;13.630;2023-02-28T19:48:45;12.57;;;9.85;;
13366;SDS011;6752;52.612;13.630;2023-02-28T19:53:47;12.98;;;9.95;;
13366;SDS011;6752;52.612;13.630;2023-02-28T19:58:50;13.23;;;9.45;;
13366;SDS011;6752;52.612;13.630;2023-02-28T20:03:52;13.55;;;10.50;;
13366;SDS011;6752;52.612;13.630;2023-02-28T20:08:55;12.50;;;10.07;;
13366;SDS011;6752;52.612;13.630;2023-02-28T20:13:57;12.68;;;10.27;;
13366;SDS011;6752;52.612;13.630;2023-02-28T20:19:00;11.50;;;9.55;;
13366;SDS011;6752;52.612;13.630;2023-02-28T20:24:02;11.68;;;10.45;;
13366;SDS011;6752;52.612;13.630;2023-02-28T20:29:05;11.73;;;10.52;;
13366;SDS011;6752;52.612;13.630;2023-02-28T20:44:11;12.80;;;11.10;;
13366;SDS011;6752;52.612;13.630;2023-02-28T20:49:13;15.18;;;11.27;;
13366;SDS011;6752;52.612;13.630;2023-02-28T20:54:16;13.43;;;10.75;;
13366;SDS011;6752;52.612;13.630;2023-02-28T20:59:18;11.10;;;9.93;;
13366;SDS011;6752;52.612;13.630;2023-02-28T21:04:20;18.67;;;12.37;;
13366;SDS011;6752;52.612;13.630;2023-02-28T21:09:23;13.68;;;11.57;;
13366;SDS011;6752;52.612;13.630;2023-02-28T21:14:25;13.02;;;10.68;;
13366;SDS011;6752;52.612;13.630;2023-02-28T21:19:28;13.55;;;11.50;;
13366;SDS011;6752;52.612;13.630;2023-02-28T21:24:30;14.13;;;12.05;;
13366;SDS011;6752;52.612;13.630;2023-02-28T21:29:32;17.87;;;14.20;;
13366;SDS011;6752;52.612;13.630;2023-02-28T21:34:35;16.52;;;13.52;;
13366;SDS011;6752;52.612;13.630;2023-02-28T21:39:37;15.70;;;12.55;;
13366;SDS011;6752;52.612;13.630;2023-02-28T21:44:40;14.13;;;12.37;;
13366;SDS011;6752;52.612;13.630;2023-02-28T21:49:42;17.73;;;14.55;;
13366;SDS011;6752;52.612;13.630;2023-02-28T21:54:44;15.50;;;12.68;;
13366;SDS011;6752;52.612;13.630;2023-02-28T21:59:47;17.23;;;13.35;;
13366;SDS011;6752;52.612;13.630;2023-02-28T22:04:49;16.25;;;12.95;;
13366;SDS011;6752;52.612;13.630;2023-02-28T22:09:52;16.98;;;13.07;;
13366;SDS011;6752;52.612;13.630;2023-02-28T22:14:54;17.80;;;13.80;;
13366;SDS011;6752;52.612;13.630;2023-02-28T22:19:57;16.50;;;13.50;;
13366;SDS011;6752;52.612;13.630;2023-02-28T22:24:59;16.60;;;12.75;;
13366;SDS011;6752;52.612;13.630;2023-02-28T22:30:01;19.60;;;13.95;;
13366;SDS011;6752;52.612;13.630;2023-02-28T22:35:04;18.08;;;14.02;;
13366;SDS011;6752;52.612;13.630;2023-02-28T22:40:06;17.58;;;14.75;;
13366;SDS011;6752;52.612;13.630;2023-02-28T22:45:09;15.27;;;13.68;;
13366;SDS011;6752;52.612;13.630;2023-02-28T22:50:11;15.10;;;13.07;;
13366;SDS011;6752;52.612;13.630;2023-02-28T22:55:14;15.07;;;13.48;;
13366;SDS011;6752;52.612;13.630;2023-02-28T23:00:16;17.52;;;13.52;;
13366;SDS011;6752;52.612;13.630;2023-02-28T23:05:18;15.85;;;13.48;;
13366;SDS011;6752;52.612;13.630;2023-02-28T23:10:21;16.00;;;13.30;;
13366;SDS011;6752;52.612;13.630;2023-02-28T23:15:23;16.60;;;14.10;;
13366;SDS011;6752;52.612;13.630;2023-02-28T23:20:26;17.75;;;14.63;;
13366;SDS011;6752;52.612;13.630;2023-02-28T23:25:28;17.83;;;14.13;;
13366;SDS011;6752;52.612;13.630;2023-02-28T23:30:31;16.80;;;13.05;;
13366;SDS011;6752;52.612;13.630;2023-02-28T23:35:33;17.80;;;15.90;;
13366;SDS011;6752;52.612;13.630;2023-02-28T23:40:35;16.05;;;13.98;;
13366;SDS011;6752;52.612;13.630;2023-02-28T23:45:38;16.20;;;13.88;;
13366;SDS011;6752;52.612;13.630;2023-02-28T23:55:45;16.00;;;14.23;;
